Time;durP1;ratioP1;P1;durP2;ratioP2;P2;SDS_P1;SDS_P2;PMS_P1;PMS_P2;Temp;Humidity;BMP_temperature;BMP_pressure;BME280_temperature;BME280_humidity;BME280_pressure;Samples;Min_cycle;Max_cycle;Signal;HPM_P1;HPM_P2
2023/03/02 00:02:22;;;;;;;;;15.00;14.75;;;;;;;;5046774;29;9578;-78
2023/03/02 00:04:55;;;;;;;;;24.20;18.00;;;;;;;;5015837;29;11626;-77
2023/03/02 00:07:30;;;;;;;;;15.00;15.00;;;;;;;;5030970;29;8818;-76
2023/03/02 00:10:01;;;;;;;;;20.00;19.40;;;;;;;;5028922;29;8793;-76
2023/03/02 00:12:34;;;;;;;;;11.20;11.20;;;;;;;;5047511;29;8830;-76
2023/03/02 00:15:05;;;;;;;;;14.20;12.80;;;;;;;;5030796;29;8997;-75
2023/03/02 00:17:36;;;;;;;;;11.00;10.80;;;;;;;;5031059;29;8798;-76
2023/03/02 00:20:10;;;;;;;;;18.40;18.40;;;;;;;;5046132;29;8799;-76
2023/03/02 00:22:43;;;;;;;;;19.00;19.00;;;;;;;;5047242;29;8802;-76
2023/03/02 00:25:15;;;;;;;;;16.20;16.20;;;;;;;;4998342;29;8809;-76
2023/03/02 00:27:46;;;;;;;;;16.80;16.80;;;;;;;;4996563;29;8820;-76
2023/03/02 00:30:17;;;;;;;;;9.00;9.00;;;;;;;;5042050;29;8790;-75
2023/03/02 00:32:48;;;;;;;;;29.00;29.00;;;;;;;;5029796;29;8829;-77
2023/03/02 00:35:19;;;;;;;;;23.20;23.20;;;;;;;;5030781;29;8802;-75
2023/03/02 00:37:50;;;;;;;;;15.00;15.00;;;;;;;;5047218;29;8791;-76
2023/03/02 00:40:21;;;;;;;;;12.00;12.00;;;;;;;;5015028;29;11632;-75
2023/03/02 00:42:52;;;;;;;;;15.25;15.25;;;;;;;;5030408;29;11524;-75
2023/03/02 00:45:42;;;;;;;;;5.20;5.20;;;;;;;;5024783;29;9764;-75
2023/03/02 00:48:13;;;;;;;;;4.40;4.40;;;;;;;;5011646;29;8865;-73
2023/03/02 00:50:44;;;;;;;;;4.40;3.40;;;;;;;;5011319;29;8813;-74
2023/03/02 00:53:16;;;;;;;;;8.00;7.00;;;;;;;;5026296;29;8900;-74
2023/03/02 00:55:54;;;;;;;;;12.60;12.00;;;;;;;;5027009;29;8812;-74
2023/03/02 00:58:27;;;;;;;;;8.60;7.80;;;;;;;;5027790;29;9663;-74
2023/03/02 01:01:04;;;;;;;;;36.00;34.00;;;;;;;;5010675;29;8833;-75
2023/03/02 01:03:36;;;;;;;;;13.40;13.40;;;;;;;;4995989;29;8862;-78
2023/03/02 01:06:13;;;;;;;;;11.00;11.00;;;;;;;;5010952;29;8823;-79
2023/03/02 01:08:44;;;;;;;;;4.00;3.80;;;;;;;;5032887;29;8833;-79
2023/03/02 01:11:17;;;;;;;;;6.00;6.00;;;;;;;;5046560;29;8822;-79
2023/03/02 01:13:49;;;;;;;;;8.20;8.20;;;;;;;;5023529;29;9721;-80
2023/03/02 01:16:38;;;;;;;;;16.40;15.80;;;;;;;;5064785;29;8804;-79
2023/03/02 01:19:10;;;;;;;;;11.40;11.40;;;;;;;;5049559;29;8803;-80
2023/03/02 01:21:41;;;;;;;;;9.00;9.00;;;;;;;;5064393;29;8812;-80
2023/03/02 01:24:12;;;;;;;;;0.20;0.20;;;;;;;;5037342;29;8819;-80
2023/03/02 01:26:43;;;;;;;;;6.00;6.00;;;;;;;;5029574;29;8900;-79
2023/03/02 01:29:14;;;;;;;;;15.00;15.00;;;;;;;;5039293;29;8805;-79
2023/03/02 01:31:45;;;;;;;;;10.40;10.40;;;;;;;;5033781;29;8820;-79
2023/03/02 01:34:16;;;;;;;;;5.20;5.20;;;;;;;;5048970;29;8804;-80
2023/03/02 01:36:48;;;;;;;;;7.80;7.80;;;;;;;;5048229;29;8780;-79
2023/03/02 01:39:21;;;;;;;;;16.00;16.00;;;;;;;;5048746;29;8800;-79
2023/03/02 01:41:52;;;;;;;;;18.80;18.80;;;;;;;;5049266;29;8813;-80
2023/03/02 01:44:42;;;;;;;;;9.20;9.20;;;;;;;;5035968;29;8807;-80
2023/03/02 01:47:14;;;;;;;;;6.00;4.80;;;;;;;;4999169;29;8822;-81
2023/03/02 01:49:53;;;;;;;;;20.60;20.60;;;;;;;;5015235;29;8828;-81
2023/03/02 01:52:25;;;;;;;;;27.20;27.00;;;;;;;;5031164;29;8826;-82
2023/03/02 01:54:58;;;;;;;;;15.80;15.80;;;;;;;;5033037;29;8831;-81
2023/03/02 01:57:31;;;;;;;;;11.60;10.20;;;;;;;;5033196;29;8812;-81
2023/03/02 02:00:09;;;;;;;;;10.00;9.80;;;;;;;;5048398;29;8792;-80
2023/03/02 02:02:44;;;;;;;;;9.00;9.00;;;;;;;;5049149;29;8820;-80
2023/03/02 02:05:18;;;;;;;;;19.00;18.20;;;;;;;;5048765;29;8819;-79
2023/03/02 02:07:50;;;;;;;;;21.00;20.80;;;;;;;;5035122;29;8953;-78
2023/03/02 02:10:22;;;;;;;;;11.40;11.00;;;;;;;;5029055;29;8824;-78
2023/03/02 02:12:53;;;;;;;;;24.40;21.60;;;;;;;;5047868;29;8818;-82
2023/03/02 02:15:43;;;;;;;;;6.80;6.80;;;;;;;;5035636;29;8802;-83
2023/03/02 02:18:14;;;;;;;;;4.40;4.40;;;;;;;;5048828;29;8807;-84
2023/03/02 02:20:47;;;;;;;;;10.80;10.80;;;;;;;;5017724;29;8973;-81
2023/03/02 02:23:34;;;;;;;;;7.80;7.80;;;;;;;;5035684;29;8811;-82
2023/03/02 02:26:23;;;;;;;;;17.60;17.40;;;;;;;;5065125;29;8827;-79
2023/03/02 02:28:58;;;;;;;;;20.40;19.80;;;;;;;;5017764;29;8809;-81
2023/03/02 02:31:36;;;;;;;;;13.80;13.20;;;;;;;;5053073;29;8946;-80
2023/03/02 02:34:21;;;;;;;;;16.20;16.00;;;;;;;;5017707;29;8894;-78
2023/03/02 02:36:55;;;;;;;;;21.40;18.80;;;;;;;;5033045;29;8799;-77
2023/03/02 02:39:30;;;;;;;;;15.00;12.40;;;;;;;;5018018;29;8798;-80
2023/03/02 02:42:03;;;;;;;;;42.60;33.60;;;;;;;;5049960;29;8951;-85
2023/03/02 02:44:35;;;;;;;;;41.40;35.40;;;;;;;;5026528;29;8798;-77
2023/03/02 02:47:18;;;;;;;;;30.00;30.00;;;;;;;;5041778;29;8835;-77
2023/03/02 02:49:51;;;;;;;;;13.00;13.00;;;;;;;;5048225;29;8943;-74
2023/03/02 02:52:23;;;;;;;;;11.20;11.20;;;;;;;;5062201;29;8930;-74
2023/03/02 02:54:55;;;;;;;;;14.20;13.00;;;;;;;;5049993;29;10558;-74
2023/03/02 02:57:28;;;;;;;;;13.80;13.40;;;;;;;;5049299;29;8823;-75
2023/03/02 02:59:59;;;;;;;;;11.60;11.60;;;;;;;;5025999;29;9610;-74
2023/03/02 03:02:36;;;;;;;;;62.00;54.00;;;;;;;;5048287;29;8830;-72
2023/03/02 03:05:13;;;;;;;;;6.00;6.00;;;;;;;;5051573;29;8800;-74
2023/03/02 03:07:44;;;;;;;;;15.60;15.20;;;;;;;;5021088;29;8788;-73
2023/03/02 03:10:24;;;;;;;;;60.75;50.50;;;;;;;;5048955;29;8841;-74
2023/03/02 03:12:56;;;;;;;;;45.25;41.00;;;;;;;;5035560;29;8855;-75
2023/03/02 03:15:27;;;;;;;;;37.00;35.00;;;;;;;;5051597;29;8812;-75
2023/03/02 03:17:58;;;;;;;;;20.00;16.50;;;;;;;;5051362;29;8852;-72
2023/03/02 03:20:31;;;;;;;;;11.40;10.20;;;;;;;;5051411;29;10762;-73
2023/03/02 03:23:02;;;;;;;;;17.00;17.00;;;;;;;;5065866;29;8796;-74
2023/03/02 03:25:35;;;;;;;;;9.40;9.00;;;;;;;;5051168;29;8807;-75
2023/03/02 03:28:06;;;;;;;;;10.80;10.80;;;;;;;;5035629;29;8835;-75
2023/03/02 03:30:38;;;;;;;;;9.40;9.00;;;;;;;;5034864;29;8812;-76
2023/03/02 03:33:27;;;;;;;;;13.00;13.00;;;;;;;;5066846;29;8880;-75
2023/03/02 03:35:59;;;;;;;;;23.80;22.60;;;;;;;;5035539;29;8835;-75
2023/03/02 03:38:49;;;;;;;;;20.60;18.80;;;;;;;;5053758;29;8784;-75
2023/03/02 03:41:38;;;;;;;;;9.60;9.40;;;;;;;;5053202;29;8836;-75
2023/03/02 03:44:11;;;;;;;;;10.00;9.60;;;;;;;;5057963;29;8830;-75
2023/03/02 03:47:00;;;;;;;;;7.00;6.40;;;;;;;;5048962;29;8879;-74
2023/03/02 03:49:31;;;;;;;;;16.80;16.80;;;;;;;;5050526;29;9606;-75
2023/03/02 03:52:03;;;;;;;;;21.75;21.50;;;;;;;;5050770;29;8804;-75
2023/03/02 03:54:34;;;;;;;;;16.00;15.00;;;;;;;;5066031;29;11610;-75
2023/03/02 03:57:05;;;;;;;;;28.75;22.00;;;;;;;;5035436;29;8796;-75
2023/03/02 03:59:36;;;;;;;;;16.00;15.80;;;;;;;;5050494;29;8950;-75
2023/03/02 04:02:09;;;;;;;;;27.20;21.40;;;;;;;;5062131;29;8832;-75
2023/03/02 04:04:45;;;;;;;;;19.40;19.40;;;;;;;;5031359;29;8794;-75
2023/03/02 04:07:19;;;;;;;;;31.80;31.80;;;;;;;;5023542;29;8845;-74
2023/03/02 04:10:02;;;;;;;;;16.80;16.80;;;;;;;;5030545;29;9578;-73
2023/03/02 04:12:36;;;;;;;;;15.40;15.40;;;;;;;;5030986;29;9617;-73
2023/03/02 04:15:08;;;;;;;;;32.40;30.80;;;;;;;;5046256;29;8826;-73
2023/03/02 04:17:39;;;;;;;;;34.60;34.60;;;;;;;;5046151;29;8802;-74
2023/03/02 04:20:15;;;;;;;;;26.60;25.60;;;;;;;;5030984;29;8796;-74
2023/03/02 04:23:04;;;;;;;;;7.40;7.00;;;;;;;;5050225;29;8832;-73
2023/03/02 04:25:35;;;;;;;;;9.00;9.00;;;;;;;;5065711;29;8805;-73
2023/03/02 04:28:17;;;;;;;;;6.60;6.60;;;;;;;;5050345;29;8800;-73
2023/03/02 04:30:50;;;;;;;;;12.80;12.80;;;;;;;;5049890;29;8819;-73
2023/03/02 04:33:39;;;;;;;;;15.00;15.00;;;;;;;;5061942;29;8825;-80
2023/03/02 04:36:10;;;;;;;;;12.00;12.00;;;;;;;;5046589;29;9539;-76
2023/03/02 04:38:42;;;;;;;;;12.00;9.00;;;;;;;;5014774;29;10713;-76
2023/03/02 04:41:13;;;;;;;;;10.40;9.40;;;;;;;;5024745;29;8857;-80
2023/03/02 04:43:44;;;;;;;;;7.20;7.20;;;;;;;;5045794;29;8802;-74
2023/03/02 04:46:18;;;;;;;;;13.50;12.50;;;;;;;;5047795;29;8889;-73
2023/03/02 04:49:08;;;;;;;;;9.60;9.60;;;;;;;;5047379;29;11007;-73
2023/03/02 04:51:41;;;;;;;;;8.50;7.50;;;;;;;;5030124;29;8853;-73
2023/03/02 04:54:23;;;;;;;;;11.20;11.20;;;;;;;;5047288;29;8815;-74
2023/03/02 04:56:54;;;;;;;;;9.60;9.60;;;;;;;;5043690;29;8835;-74
2023/03/02 04:59:26;;;;;;;;;12.00;12.00;;;;;;;;5045459;29;8818;-73
2023/03/02 05:01:58;;;;;;;;;15.00;15.00;;;;;;;;5045120;29;8926;-73
2023/03/02 05:04:29;;;;;;;;;11.20;9.60;;;;;;;;5045236;29;8799;-73
2023/03/02 05:07:00;;;;;;;;;21.40;20.80;;;;;;;;5047376;29;8919;-72
2023/03/02 05:09:31;;;;;;;;;9.00;8.50;;;;;;;;5064202;29;8947;-73
2023/03/02 05:12:02;;;;;;;;;8.00;8.00;;;;;;;;5047275;29;8963;-73
2023/03/02 05:14:33;;;;;;;;;3.00;2.60;;;;;;;;5059892;29;8894;-73
2023/03/02 05:17:04;;;;;;;;;1.00;1.00;;;;;;;;5062730;29;8812;-73
2023/03/02 05:19:35;;;;;;;;;9.75;9.25;;;;;;;;5060508;29;8835;-73
2023/03/02 05:22:06;;;;;;;;;12.00;11.80;;;;;;;;5027892;29;8874;-73
2023/03/02 05:24:36;;;;;;;;;9.75;9.75;;;;;;;;5030031;29;8837;-72
2023/03/02 05:27:07;;;;;;;;;22.25;22.00;;;;;;;;5062411;29;8788;-72
2023/03/02 05:29:38;;;;;;;;;24.50;24.00;;;;;;;;5047195;29;8832;-74
2023/03/02 05:32:11;;;;;;;;;13.00;11.60;;;;;;;;5047264;29;8851;-73
2023/03/02 05:34:42;;;;;;;;;14.20;14.20;;;;;;;;5062507;29;8827;-73
2023/03/02 05:37:13;;;;;;;;;12.50;12.50;;;;;;;;5063396;29;8800;-73
2023/03/02 05:39:43;;;;;;;;;2.50;2.50;;;;;;;;5047067;29;8846;-73
2023/03/02 05:42:14;;;;;;;;;3.00;3.00;;;;;;;;5046312;29;9084;-75
2023/03/02 05:44:45;;;;;;;;;6.75;6.75;;;;;;;;5030933;29;8907;-73
2023/03/02 05:47:15;;;;;;;;;9.00;6.00;;;;;;;;5044222;29;8838;-74
2023/03/02 05:49:46;;;;;;;;;24.25;23.50;;;;;;;;5044326;29;8814;-73
2023/03/02 05:52:17;;;;;;;;;30.25;26.75;;;;;;;;5044184;29;8821;-73
2023/03/02 05:54:48;;;;;;;;;1.00;1.00;;;;;;;;5043058;29;8812;-73
2023/03/02 05:57:19;;;;;;;;;56.67;46.00;;;;;;;;5014657;29;8952;-73
2023/03/02 05:59:50;;;;;;;;;14.00;13.25;;;;;;;;5046726;29;9180;-74
2023/03/02 06:02:21;;;;;;;;;28.75;28.00;;;;;;;;5062351;29;9560;-73
2023/03/02 06:04:52;;;;;;;;;24.00;24.00;;;;;;;;5045842;29;8884;-73
2023/03/02 06:07:23;;;;;;;;;10.75;10.00;;;;;;;;5046686;29;8820;-73
2023/03/02 06:10:13;;;;;;;;;9.60;9.60;;;;;;;;5062207;29;11504;-73
2023/03/02 06:12:44;;;;;;;;;14.20;14.20;;;;;;;;5062411;29;8843;-75
2023/03/02 06:15:15;;;;;;;;;21.25;20.50;;;;;;;;5043957;29;8868;-73
2023/03/02 06:17:48;;;;;;;;;8.80;7.60;;;;;;;;5024915;29;8860;-74
2023/03/02 06:20:38;;;;;;;;;5.60;3.80;;;;;;;;5024730;29;8875;-74
2023/03/02 06:23:10;;;;;;;;;10.60;10.60;;;;;;;;5032352;29;8945;-75
2023/03/02 06:25:46;;;;;;;;;14.60;14.60;;;;;;;;5040894;29;8811;-74
2023/03/02 06:28:20;;;;;;;;;3.80;3.80;;;;;;;;5044662;29;9539;-79
2023/03/02 06:30:53;;;;;;;;;3.80;2.40;;;;;;;;5001051;29;8821;-80
2023/03/02 06:33:26;;;;;;;;;12.20;11.20;;;;;;;;5003283;29;8806;-80
2023/03/02 06:35:58;;;;;;;;;26.40;26.40;;;;;;;;5005153;29;8838;-81
2023/03/02 06:38:31;;;;;;;;;21.40;21.00;;;;;;;;4999225;29;8827;-81
2023/03/02 06:41:03;;;;;;;;;3.60;3.60;;;;;;;;5032333;29;8880;-81
2023/03/02 06:43:36;;;;;;;;;10.80;10.80;;;;;;;;5049203;29;8850;-80
2023/03/02 06:46:08;;;;;;;;;9.20;9.20;;;;;;;;5034863;29;8831;-79
2023/03/02 06:48:41;;;;;;;;;13.80;13.60;;;;;;;;5030643;29;8844;-80
2023/03/02 06:51:13;;;;;;;;;8.80;7.60;;;;;;;;5046403;29;8863;-79
2023/03/02 06:53:46;;;;;;;;;19.40;19.40;;;;;;;;5015581;29;9531;-79
2023/03/02 06:56:18;;;;;;;;;20.60;20.60;;;;;;;;5015922;29;9557;-81
2023/03/02 06:58:51;;;;;;;;;7.20;6.80;;;;;;;;5017389;29;8838;-80
2023/03/02 07:01:23;;;;;;;;;4.40;4.40;;;;;;;;5018609;29;8980;-80
2023/03/02 07:03:56;;;;;;;;;15.00;14.80;;;;;;;;5004021;29;8849;-80
2023/03/02 07:06:28;;;;;;;;;18.60;17.80;;;;;;;;5003762;29;8830;-79
2023/03/02 07:09:00;;;;;;;;;37.80;35.80;;;;;;;;5003234;29;8822;-80
2023/03/02 07:11:34;;;;;;;;;15.40;15.40;;;;;;;;5004145;29;8839;-80
2023/03/02 07:14:06;;;;;;;;;16.60;16.00;;;;;;;;5032444;29;8821;-80
2023/03/02 07:16:38;;;;;;;;;10.00;10.00;;;;;;;;5034586;29;8833;-81
2023/03/02 07:19:11;;;;;;;;;9.40;9.40;;;;;;;;5048874;29;8810;-80
2023/03/02 07:21:44;;;;;;;;;49.20;42.60;;;;;;;;5058996;29;8834;-80
2023/03/02 07:24:16;;;;;;;;;19.80;18.40;;;;;;;;5053729;29;8832;-81
2023/03/02 07:26:47;;;;;;;;;7.40;7.40;;;;;;;;5052859;29;8852;-74
2023/03/02 07:29:19;;;;;;;;;22.00;21.75;;;;;;;;5067179;29;9605;-80
2023/03/02 07:32:11;;;;;;;;;16.80;16.80;;;;;;;;5064693;29;11588;-82
2023/03/02 07:34:43;;;;;;;;;7.80;7.00;;;;;;;;5039289;29;8826;-81
2023/03/02 07:37:15;;;;;;;;;11.80;11.80;;;;;;;;5038005;29;8826;-81
2023/03/02 07:39:48;;;;;;;;;8.60;8.60;;;;;;;;5031568;29;8874;-80
2023/03/02 07:42:20;;;;;;;;;5.60;4.40;;;;;;;;5034535;29;8891;-80
2023/03/02 07:45:11;;;;;;;;;8.40;8.40;;;;;;;;5055598;29;8818;-76
2023/03/02 07:47:42;;;;;;;;;16.75;15.00;;;;;;;;5054689;29;9642;-79
2023/03/02 07:50:15;;;;;;;;;8.20;8.20;;;;;;;;5041654;29;8818;-80
2023/03/02 07:53:05;;;;;;;;;15.00;13.80;;;;;;;;5021773;29;8822;-73
2023/03/02 07:55:41;;;;;;;;;4.00;4.00;;;;;;;;5017758;29;8849;-82
2023/03/02 07:58:31;;;;;;;;;6.60;6.60;;;;;;;;5053168;29;8913;-80
2023/03/02 08:01:03;;;;;;;;;20.20;20.20;;;;;;;;5023272;29;8939;-73
2023/03/02 08:03:34;;;;;;;;;16.20;15.80;;;;;;;;5036557;29;8835;-73
2023/03/02 08:06:10;;;;;;;;;12.60;12.40;;;;;;;;5033193;29;8827;-73
2023/03/02 08:08:41;;;;;;;;;4.00;3.40;;;;;;;;5032613;29;8830;-72
2023/03/02 08:11:30;;;;;;;;;4.80;4.80;;;;;;;;5050815;29;8821;-73
2023/03/02 08:14:01;;;;;;;;;14.00;14.00;;;;;;;;5038103;29;8858;-72
2023/03/02 08:16:32;;;;;;;;;28.80;26.40;;;;;;;;5030882;29;8806;-73
2023/03/02 08:19:21;;;;;;;;;5.60;4.40;;;;;;;;5046963;29;8826;-74
2023/03/02 08:21:52;;;;;;;;;22.00;21.75;;;;;;;;5046358;29;8819;-72
2023/03/02 08:24:23;;;;;;;;;8.00;8.00;;;;;;;;5048471;29;8929;-72
2023/03/02 08:26:54;;;;;;;;;4.00;4.00;;;;;;;;5055451;29;8835;-74
2023/03/02 08:29:25;;;;;;;;;10.50;9.00;;;;;;;;5059603;29;8812;-73
2023/03/02 08:32:14;;;;;;;;;3.60;3.20;;;;;;;;5051008;29;8819;-74
2023/03/02 08:34:50;;;;;;;;;3.25;3.25;;;;;;;;5045240;29;8875;-74
2023/03/02 08:37:20;;;;;;;;;4.00;4.00;;;;;;;;5052778;29;8841;-74
2023/03/02 08:39:51;;;;;;;;;9.25;9.25;;;;;;;;5059987;29;8982;-74
2023/03/02 08:42:22;;;;;;;;;3.75;3.00;;;;;;;;5046097;29;8824;-73
2023/03/02 08:44:53;;;;;;;;;12.25;12.25;;;;;;;;5033936;29;8793;-74
2023/03/02 08:47:23;;;;;;;;;21.75;21.50;;;;;;;;5066361;29;11567;-74
2023/03/02 08:49:54;;;;;;;;;25.75;22.75;;;;;;;;5049223;29;8821;-74
2023/03/02 08:52:25;;;;;;;;;33.00;31.00;;;;;;;;5054557;29;8814;-74
2023/03/02 08:54:56;;;;;;;;;13.75;12.50;;;;;;;;5030350;29;11605;-74
2023/03/02 08:57:29;;;;;;;;;11.60;11.60;;;;;;;;5014702;29;8806;-74
2023/03/02 09:00:00;;;;;;;;;9.25;9.25;;;;;;;;5033292;29;8849;-75
2023/03/02 09:22:51;;;;;;;;;19.25;18.75;;;;;;;;5031468;29;8890;-73
2023/03/02 09:25:21;;;;;;;;;18.75;18.75;;;;;;;;5011765;29;9012;-75
2023/03/02 09:27:52;;;;;;;;;14.00;14.00;;;;;;;;5010369;29;8793;-73
2023/03/02 09:30:47;;;;;;;;;42.60;39.40;;;;;;;;5027387;29;9579;-73
2023/03/02 09:33:18;;;;;;;;;15.00;14.60;;;;;;;;5027519;29;9533;-74
2023/03/02 09:35:49;;;;;;;;;19.60;18.80;;;;;;;;5010454;29;8811;-73
2023/03/02 09:38:39;;;;;;;;;25.80;25.80;;;;;;;;5032097;29;8791;-73
2023/03/02 09:41:19;;;;;;;;;9.00;7.00;;;;;;;;5044852;29;8819;-73
2023/03/02 09:44:08;;;;;;;;;6.00;6.00;;;;;;;;5029579;29;8917;-73
2023/03/02 09:46:48;;;;;;;;;12.00;9.00;;;;;;;;5044280;29;8834;-73
2023/03/02 09:49:38;;;;;;;;;9.00;8.60;;;;;;;;5029258;29;8933;-73
2023/03/02 09:52:15;;;;;;;;;5.60;5.60;;;;;;;;5029514;29;9693;-73
2023/03/02 09:54:46;;;;;;;;;8.20;7.00;;;;;;;;5029203;29;8921;-73
2023/03/02 09:57:30;;;;;;;;;11.60;11.60;;;;;;;;5029006;29;8823;-74
2023/03/02 10:00:22;;;;;;;;;10.00;9.00;;;;;;;;5013521;29;8834;-75
2023/03/02 10:02:55;;;;;;;;;6.20;6.20;;;;;;;;5044553;29;8827;-72
2023/03/02 10:05:28;;;;;;;;;2.60;2.60;;;;;;;;4998411;29;9539;-74
2023/03/02 10:07:59;;;;;;;;;5.60;5.60;;;;;;;;5007079;29;9535;-74
2023/03/02 10:10:41;;;;;;;;;13.00;12.40;;;;;;;;5040640;29;8931;-73
2023/03/02 10:13:18;;;;;;;;;20.20;18.80;;;;;;;;5009752;29;8832;-74
2023/03/02 10:15:52;;;;;;;;;10.80;9.80;;;;;;;;5034515;29;8880;-75
2023/03/02 10:18:42;;;;;;;;;4.40;4.40;;;;;;;;5040625;29;9534;-70
2023/03/02 10:21:14;;;;;;;;;12.80;12.60;;;;;;;;5014062;29;8851;-76
2023/03/02 10:23:52;;;;;;;;;12.60;11.60;;;;;;;;5028506;29;8830;-75
2023/03/02 10:26:44;;;;;;;;;15.20;14.80;;;;;;;;5007803;29;8816;-74
2023/03/02 10:29:27;;;;;;;;;14.60;14.60;;;;;;;;5009844;29;8821;-74
2023/03/02 10:32:03;;;;;;;;;27.20;27.00;;;;;;;;5029952;29;9670;-74
2023/03/02 10:34:34;;;;;;;;;9.80;8.40;;;;;;;;5031964;29;8837;-74
2023/03/02 10:37:13;;;;;;;;;14.20;13.40;;;;;;;;5032780;29;8909;-75
2023/03/02 10:39:44;;;;;;;;;6.00;4.40;;;;;;;;5018813;29;8971;-75
2023/03/02 10:42:35;;;;;;;;;7.00;6.25;;;;;;;;5030545;29;8979;-75
2023/03/02 10:45:25;;;;;;;;;6.60;6.60;;;;;;;;5012060;29;8805;-75
2023/03/02 10:48:01;;;;;;;;;4.00;4.00;;;;;;;;4998401;29;8831;-76
2023/03/02 10:50:32;;;;;;;;;15.80;15.80;;;;;;;;5013187;29;8834;-75
2023/03/02 10:53:05;;;;;;;;;28.25;28.25;;;;;;;;5013136;29;8809;-76
2023/03/02 10:55:43;;;;;;;;;24.40;24.20;;;;;;;;5029565;29;8801;-76
2023/03/02 10:58:19;;;;;;;;;19.80;19.80;;;;;;;;5013628;29;8817;-76
2023/03/02 11:00:58;;;;;;;;;21.80;17.60;;;;;;;;5012972;29;8824;-76
2023/03/02 11:03:30;;;;;;;;;11.20;10.00;;;;;;;;5029436;29;8987;-76
2023/03/02 11:06:30;;;;;;;;;9.00;9.00;;;;;;;;5012575;29;8805;-76
2023/03/02 11:09:05;;;;;;;;;9.40;9.40;;;;;;;;5017288;29;8828;-76
2023/03/02 11:11:36;;;;;;;;;12.80;10.00;;;;;;;;4997252;29;8808;-76
2023/03/02 11:14:14;;;;;;;;;9.00;9.00;;;;;;;;5013063;29;8897;-77
2023/03/02 11:16:45;;;;;;;;;15.60;9.60;;;;;;;;5012889;29;8819;-76
2023/03/02 11:19:30;;;;;;;;;8.50;7.00;;;;;;;;5029731;29;8793;-76
2023/03/02 11:22:12;;;;;;;;;6.00;6.00;;;;;;;;5029650;29;8836;-76
2023/03/02 11:24:48;;;;;;;;;11.80;10.00;;;;;;;;5047270;29;8803;-76
2023/03/02 11:27:27;;;;;;;;;12.40;12.40;;;;;;;;5048630;29;8803;-76
2023/03/02 11:30:01;;;;;;;;;7.40;7.20;;;;;;;;5032066;29;9598;-76
2023/03/02 11:32:35;;;;;;;;;6.40;6.40;;;;;;;;5048356;29;8810;-75
2023/03/02 11:35:12;;;;;;;;;8.20;8.20;;;;;;;;5015874;29;8811;-75
2023/03/02 11:38:08;;;;;;;;;16.00;16.00;;;;;;;;5047451;29;8810;-74
2023/03/02 11:40:41;;;;;;;;;6.00;6.00;;;;;;;;5031819;29;8890;-74
2023/03/02 11:43:12;;;;;;;;;1.00;1.00;;;;;;;;5031638;29;8798;-73
2023/03/02 11:45:58;;;;;;;;;3.60;3.60;;;;;;;;5046751;29;8829;-73
2023/03/02 11:48:32;;;;;;;;;6.20;6.20;;;;;;;;5046874;29;8823;-73
2023/03/02 11:51:05;;;;;;;;;6.00;6.00;;;;;;;;5046770;29;8803;-73
2023/03/02 11:53:48;;;;;;;;;20.00;18.80;;;;;;;;5046616;29;8822;-74
2023/03/02 11:56:19;;;;;;;;;16.60;13.40;;;;;;;;5031770;29;8810;-74
2023/03/02 11:59:01;;;;;;;;;8.80;8.80;;;;;;;;5031392;29;8814;-74
2023/03/02 12:01:34;;;;;;;;;22.00;21.80;;;;;;;;5031177;29;8938;-74
2023/03/02 12:04:06;;;;;;;;;10.20;9.80;;;;;;;;5047805;29;9503;-74
2023/03/02 12:06:39;;;;;;;;;15.20;14.20;;;;;;;;5047535;29;9525;-75
2023/03/02 12:09:33;;;;;;;;;10.20;10.20;;;;;;;;5046776;29;8921;-75
2023/03/02 12:12:11;;;;;;;;;12.80;11.40;;;;;;;;5047599;29;9640;-76
2023/03/02 12:14:42;;;;;;;;;21.20;18.20;;;;;;;;5030970;29;8775;-75
2023/03/02 12:17:16;;;;;;;;;9.20;9.20;;;;;;;;5030790;29;8799;-76
2023/03/02 12:19:49;;;;;;;;;12.20;12.20;;;;;;;;5046540;29;8856;-76
2023/03/02 12:22:27;;;;;;;;;27.00;26.40;;;;;;;;5030574;29;8830;-76
2023/03/02 12:25:00;;;;;;;;;23.00;21.60;;;;;;;;5047233;29;8795;-76
2023/03/02 12:27:40;;;;;;;;;16.00;16.00;;;;;;;;5046565;29;9554;-77
2023/03/02 12:30:14;;;;;;;;;13.20;12.80;;;;;;;;5047663;29;8790;-76
2023/03/02 12:32:57;;;;;;;;;14.80;14.80;;;;;;;;5030943;29;8794;-76
2023/03/02 12:35:32;;;;;;;;;18.40;18.40;;;;;;;;5047106;29;8787;-76
2023/03/02 12:38:05;;;;;;;;;14.60;14.60;;;;;;;;5030337;29;8786;-76
2023/03/02 12:40:48;;;;;;;;;21.75;18.75;;;;;;;;5047353;29;8883;-76
2023/03/02 12:43:32;;;;;;;;;18.60;18.60;;;;;;;;5030429;29;8791;-76
2023/03/02 12:46:03;;;;;;;;;17.60;17.60;;;;;;;;5038868;29;8845;-76
2023/03/02 12:48:44;;;;;;;;;7.50;7.50;;;;;;;;5045829;29;8792;-76
2023/03/02 12:51:35;;;;;;;;;30.80;26.20;;;;;;;;5014879;29;9543;-76
2023/03/02 12:54:11;;;;;;;;;20.40;20.20;;;;;;;;5032543;29;8817;-76
2023/03/02 12:56:42;;;;;;;;;9.40;9.40;;;;;;;;5029772;29;8779;-76
2023/03/02 12:59:19;;;;;;;;;11.20;11.20;;;;;;;;5045623;29;8810;-76
2023/03/02 13:01:50;;;;;;;;;4.60;4.60;;;;;;;;5045676;29;8831;-82
2023/03/02 13:04:25;;;;;;;;;14.40;13.80;;;;;;;;5051449;29;8893;-77
2023/03/02 13:06:56;;;;;;;;;16.20;16.20;;;;;;;;5064194;29;8824;-76
2023/03/02 13:09:28;;;;;;;;;23.50;21.75;;;;;;;;5036727;29;8922;-76
2023/03/02 13:11:59;;;;;;;;;33.60;33.60;;;;;;;;5049711;29;8836;-76
2023/03/02 13:14:30;;;;;;;;;28.00;28.00;;;;;;;;5048901;29;8820;-76
2023/03/02 13:17:01;;;;;;;;;11.40;11.20;;;;;;;;5048927;29;8808;-77
2023/03/02 13:19:33;;;;;;;;;34.20;32.80;;;;;;;;5033448;29;8816;-76
2023/03/02 13:22:04;;;;;;;;;18.20;18.20;;;;;;;;5065307;29;9734;-76
2023/03/02 13:24:47;;;;;;;;;34.00;34.00;;;;;;;;5065534;29;9623;-77
2023/03/02 13:27:21;;;;;;;;;50.40;42.00;;;;;;;;5065641;29;8843;-76
2023/03/02 13:29:57;;;;;;;;;30.60;26.60;;;;;;;;5048181;29;8844;-76
2023/03/02 13:32:34;;;;;;;;;39.00;35.40;;;;;;;;5064076;29;8844;-79
2023/03/02 13:35:25;;;;;;;;;30.80;29.80;;;;;;;;5065315;29;8905;-77
2023/03/02 13:38:00;;;;;;;;;47.75;44.00;;;;;;;;5064926;29;8809;-76
2023/03/02 13:40:33;;;;;;;;;41.75;40.25;;;;;;;;5033209;29;8923;-76
2023/03/02 13:43:25;;;;;;;;;27.80;24.60;;;;;;;;5065260;29;8899;-76
2023/03/02 13:45:57;;;;;;;;;37.00;37.00;;;;;;;;5048281;29;9026;-77
2023/03/02 13:48:57;;;;;;;;;30.60;30.20;;;;;;;;5064287;29;8789;-73
2023/03/02 13:51:33;;;;;;;;;27.80;26.40;;;;;;;;5065356;29;8832;-76
2023/03/02 13:54:11;;;;;;;;;8.60;8.60;;;;;;;;5044795;29;8826;-75
2023/03/02 13:56:43;;;;;;;;;17.00;16.80;;;;;;;;5044267;29;8810;-76
2023/03/02 13:59:16;;;;;;;;;23.60;23.60;;;;;;;;5045620;29;8787;-75
2023/03/02 14:01:47;;;;;;;;;22.60;20.20;;;;;;;;5034990;29;8959;-75
2023/03/02 14:04:21;;;;;;;;;22.20;21.60;;;;;;;;5064827;29;8856;-75
2023/03/02 14:06:53;;;;;;;;;21.80;21.00;;;;;;;;5063782;29;8819;-74
2023/03/02 14:09:27;;;;;;;;;17.60;16.40;;;;;;;;5064307;29;8824;-76
2023/03/02 14:11:58;;;;;;;;;19.50;18.25;;;;;;;;5048060;29;8897;-79
2023/03/02 14:14:31;;;;;;;;;24.75;21.75;;;;;;;;5064318;29;11546;-75
2023/03/02 14:17:03;;;;;;;;;27.00;25.00;;;;;;;;5059998;29;8900;-79
2023/03/02 14:19:34;;;;;;;;;18.80;18.20;;;;;;;;5031616;29;8954;-77
2023/03/02 14:22:08;;;;;;;;;9.20;9.20;;;;;;;;5028344;29;8818;-75
2023/03/02 14:24:39;;;;;;;;;25.80;25.80;;;;;;;;5028858;29;9565;-76
2023/03/02 14:27:10;;;;;;;;;24.25;23.75;;;;;;;;5043195;29;8933;-73
2023/03/02 14:29:42;;;;;;;;;27.20;25.00;;;;;;;;5028757;29;8937;-75
2023/03/02 14:32:14;;;;;;;;;28.60;27.20;;;;;;;;5028340;29;8932;-76
2023/03/02 14:34:45;;;;;;;;;13.00;12.60;;;;;;;;5035639;29;8845;-74
2023/03/02 14:37:18;;;;;;;;;22.00;21.50;;;;;;;;4995381;29;8800;-75
2023/03/02 14:39:50;;;;;;;;;18.80;18.60;;;;;;;;5024648;29;8963;-76
2023/03/02 14:42:22;;;;;;;;;26.00;25.60;;;;;;;;5025998;29;8851;-77
2023/03/02 14:44:52;;;;;;;;;27.00;26.20;;;;;;;;5025542;29;8839;-77
2023/03/02 14:47:42;;;;;;;;;41.40;38.00;;;;;;;;5033876;29;8819;-77
2023/03/02 14:50:15;;;;;;;;;33.50;29.75;;;;;;;;5034098;29;9625;-76
2023/03/02 14:52:48;;;;;;;;;31.20;31.20;;;;;;;;5012684;29;11544;-77
2023/03/02 14:55:39;;;;;;;;;31.00;29.20;;;;;;;;5045380;29;9550;-74
2023/03/02 14:58:13;;;;;;;;;25.80;25.20;;;;;;;;5043874;29;8782;-75
2023/03/02 15:00:44;;;;;;;;;35.80;31.60;;;;;;;;5028199;29;8799;-75
2023/03/02 15:03:19;;;;;;;;;30.40;29.00;;;;;;;;5024271;29;8833;-75
2023/03/02 15:05:53;;;;;;;;;25.00;24.40;;;;;;;;5041350;29;9554;-74
2023/03/02 15:08:42;;;;;;;;;25.40;24.40;;;;;;;;5025720;29;8809;-73
2023/03/02 15:11:13;;;;;;;;;22.50;22.50;;;;;;;;5009251;29;8805;-75
2023/03/02 15:13:44;;;;;;;;;47.67;43.00;;;;;;;;5008786;29;8839;-74
2023/03/02 15:16:14;;;;;;;;;50.33;44.67;;;;;;;;5026437;29;8809;-77
2023/03/02 15:18:49;;;;;;;;;67.50;56.50;;;;;;;;5044590;29;8823;-77
2023/03/02 15:21:22;;;;;;;;;77.50;63.00;;;;;;;;5027893;29;9583;-77
2023/03/02 15:23:53;;;;;;;;;66.00;54.25;;;;;;;;5045224;29;8895;-75
2023/03/02 15:26:23;;;;;;;;;60.33;52.67;;;;;;;;5015258;29;8831;-75
2023/03/02 15:28:54;;;;;;;;;59.00;43.00;;;;;;;;5031117;29;10703;-74
2023/03/02 15:31:27;;;;;;;;;42.50;39.00;;;;;;;;5015972;29;8826;-77
2023/03/02 15:33:58;;;;;;;;;57.75;49.00;;;;;;;;5031494;29;8790;-79
2023/03/02 15:36:47;;;;;;;;;41.75;39.25;;;;;;;;5044250;29;8826;-78
2023/03/02 15:39:18;;;;;;;;;67.75;51.50;;;;;;;;5022451;29;9557;-77
2023/03/02 15:41:49;;;;;;;;;88.50;68.00;;;;;;;;5030900;29;8862;-77
2023/03/02 15:44:22;;;;;;;;;105.33;78.33;;;;;;;;5047603;29;8806;-78
2023/03/02 15:46:57;;;;;;;;;105.25;76.00;;;;;;;;5023302;29;8825;-75